sensor_id;sensor_type;location;lat;lon;timestamp;temperature;humidity
70166;SHT30;57541;47.408;18.822;2023-02-28T00:00:09;1.34;70.66
70166;SHT30;57541;47.408;18.822;2023-02-28T00:00:41;1.38;70.89
70166;SHT30;57541;47.408;18.822;2023-02-28T00:01:14;1.43;70.35
70166;SHT30;57541;47.408;18.822;2023-02-28T00:01:46;1.56;69.95
70166;SHT30;57541;47.408;18.822;2023-02-28T00:02:18;1.56;69.74
70166;SHT30;57541;47.408;18.822;2023-02-28T00:02:50;1.56;69.73
70166;SHT30;57541;47.408;18.822;2023-02-28T00:03:22;1.59;69.33
70166;SHT30;57541;47.408;18.822;2023-02-28T00:03:53;1.56;69.05
70166;SHT30;57541;47.408;18.822;2023-02-28T00:04:25;1.53;69.32
70166;SHT30;57541;47.408;18.822;2023-02-28T00:04:57;1.56;69.65
70166;SHT30;57541;47.408;18.822;2023-02-28T00:05:32;1.62;69.34
70166;SHT30;57541;47.408;18.822;2023-02-28T00:06:05;1.60;69.18
70166;SHT30;57541;47.408;18.822;2023-02-28T00:06:37;1.62;69.11
70166;SHT30;57541;47.408;18.822;2023-02-28T00:07:09;1.69;68.94
70166;SHT30;57541;47.408;18.822;2023-02-28T00:07:41;1.53;68.79
70166;SHT30;57541;47.408;18.822;2023-02-28T00:08:16;1.55;68.96
70166;SHT30;57541;47.408;18.822;2023-02-28T00:08:48;1.60;69.05
70166;SHT30;57541;47.408;18.822;2023-02-28T00:09:19;1.59;69.07
70166;SHT30;57541;47.408;18.822;2023-02-28T00:09:51;1.62;69.02
70166;SHT30;57541;47.408;18.822;2023-02-28T00:10:26;1.66;69.22
70166;SHT30;57541;47.408;18.822;2023-02-28T00:11:05;1.52;69.97
70166;SHT30;57541;47.408;18.822;2023-02-28T00:11:37;1.53;72.06
70166;SHT30;57541;47.408;18.822;2023-02-28T00:12:09;1.59;70.96
70166;SHT30;57541;47.408;18.822;2023-02-28T00:12:41;1.65;70.73
70166;SHT30;57541;47.408;18.822;2023-02-28T00:13:13;1.66;70.71
70166;SHT30;57541;47.408;18.822;2023-02-28T00:13:46;1.69;70.61
70166;SHT30;57541;47.408;18.822;2023-02-28T00:14:18;1.65;70.66
70166;SHT30;57541;47.408;18.822;2023-02-28T00:14:50;1.56;71.03
70166;SHT30;57541;47.408;18.822;2023-02-28T00:15:22;1.62;71.51
70166;SHT30;57541;47.408;18.822;2023-02-28T00:16:05;1.62;70.96
70166;SHT30;57541;47.408;18.822;2023-02-28T00:16:37;1.69;70.49
70166;SHT30;57541;47.408;18.822;2023-02-28T00:17:09;1.79;69.86
70166;SHT30;57541;47.408;18.822;2023-02-28T00:17:41;1.84;69.93
70166;SHT30;57541;47.408;18.822;2023-02-28T00:18:13;1.82;70.62
70166;SHT30;57541;47.408;18.822;2023-02-28T00:18:44;1.82;70.57
70166;SHT30;57541;47.408;18.822;2023-02-28T00:19:16;1.80;70.03
70166;SHT30;57541;47.408;18.822;2023-02-28T00:19:48;1.80;69.75
70166;SHT30;57541;47.408;18.822;2023-02-28T00:20:20;1.70;69.88
70166;SHT30;57541;47.408;18.822;2023-02-28T00:20:52;1.73;70.19
70166;SHT30;57541;47.408;18.822;2023-02-28T00:21:24;1.66;69.72
70166;SHT30;57541;47.408;18.822;2023-02-28T00:21:56;1.66;69.64
70166;SHT30;57541;47.408;18.822;2023-02-28T00:22:27;1.76;70.11
70166;SHT30;57541;47.408;18.822;2023-02-28T00:22:59;1.69;69.77
70166;SHT30;57541;47.408;18.822;2023-02-28T00:23:31;1.69;69.72
70166;SHT30;57541;47.408;18.822;2023-02-28T00:24:03;1.66;70.33
70166;SHT30;57541;47.408;18.822;2023-02-28T00:24:35;1.65;70.41
70166;SHT30;57541;47.408;18.822;2023-02-28T00:25:08;1.58;70.19
70166;SHT30;57541;47.408;18.822;2023-02-28T00:25:40;1.43;69.95
70166;SHT30;57541;47.408;18.822;2023-02-28T00:26:12;1.41;70.46
70166;SHT30;57541;47.408;18.822;2023-02-28T00:26:44;1.36;71.01
70166;SHT30;57541;47.408;18.822;2023-02-28T00:27:16;1.43;71.48
70166;SHT30;57541;47.408;18.822;2023-02-28T00:27:48;1.45;71.18
70166;SHT30;57541;47.408;18.822;2023-02-28T00:28:20;1.49;71.39
70166;SHT30;57541;47.408;18.822;2023-02-28T00:28:52;1.52;71.10
70166;SHT30;57541;47.408;18.822;2023-02-28T00:29:24;1.56;70.48
70166;SHT30;57541;47.408;18.822;2023-02-28T00:29:56;1.58;70.28
70166;SHT30;57541;47.408;18.822;2023-02-28T00:30:27;1.60;70.13
70166;SHT30;57541;47.408;18.822;2023-02-28T00:30:59;1.65;70.05
70166;SHT30;57541;47.408;18.822;2023-02-28T00:31:31;1.60;69.99
70166;SHT30;57541;47.408;18.822;2023-02-28T00:32:04;1.69;70.12
70166;SHT30;57541;47.408;18.822;2023-02-28T00:32:37;1.69;69.85
70166;SHT30;57541;47.408;18.822;2023-02-28T00:33:08;1.45;70.56
70166;SHT30;57541;47.408;18.822;2023-02-28T00:33:40;1.52;71.84
70166;SHT30;57541;47.408;18.822;2023-02-28T00:34:12;1.51;72.05
70166;SHT30;57541;47.408;18.822;2023-02-28T00:34:43;1.53;72.95
70166;SHT30;57541;47.408;18.822;2023-02-28T00:35:16;1.48;72.91
70166;SHT30;57541;47.408;18.822;2023-02-28T00:35:47;1.45;72.81
70166;SHT30;57541;47.408;18.822;2023-02-28T00:36:20;1.53;73.23
70166;SHT30;57541;47.408;18.822;2023-02-28T00:36:51;1.35;73.60
70166;SHT30;57541;47.408;18.822;2023-02-28T00:37:23;1.27;74.55
70166;SHT30;57541;47.408;18.822;2023-02-28T00:37:55;1.24;74.87
70166;SHT30;57541;47.408;18.822;2023-02-28T00:38:26;1.36;74.50
70166;SHT30;57541;47.408;18.822;2023-02-28T00:38:58;1.41;73.30
70166;SHT30;57541;47.408;18.822;2023-02-28T00:39:30;1.43;72.52
70166;SHT30;57541;47.408;18.822;2023-02-28T00:40:02;1.43;72.27
70166;SHT30;57541;47.408;18.822;2023-02-28T00:40:36;1.42;72.61
70166;SHT30;57541;47.408;18.822;2023-02-28T00:41:08;1.42;72.61
70166;SHT30;57541;47.408;18.822;2023-02-28T00:41:40;1.41;73.01
70166;SHT30;57541;47.408;18.822;2023-02-28T00:42:12;1.52;73.53
70166;SHT30;57541;47.408;18.822;2023-02-28T00:42:43;1.53;73.49
70166;SHT30;57541;47.408;18.822;2023-02-28T00:43:15;1.42;73.34
70166;SHT30;57541;47.408;18.822;2023-02-28T00:43:47;1.48;73.86
70166;SHT30;57541;47.408;18.822;2023-02-28T00:44:18;1.48;73.25
70166;SHT30;57541;47.408;18.822;2023-02-28T00:44:52;1.45;73.56
70166;SHT30;57541;47.408;18.822;2023-02-28T00:45:24;1.45;73.17
70166;SHT30;57541;47.408;18.822;2023-02-28T00:45:56;1.51;73.75
70166;SHT30;57541;47.408;18.822;2023-02-28T00:46:27;1.34;73.42
70166;SHT30;57541;47.408;18.822;2023-02-28T00:46:59;1.25;73.45
70166;SHT30;57541;47.408;18.822;2023-02-28T00:47:32;1.18;75.20
70166;SHT30;57541;47.408;18.822;2023-02-28T00:48:04;1.07;76.06
70166;SHT30;57541;47.408;18.822;2023-02-28T00:48:35;1.09;74.95
70166;SHT30;57541;47.408;18.822;2023-02-28T00:49:07;1.20;74.07
70166;SHT30;57541;47.408;18.822;2023-02-28T00:49:39;1.14;73.82
70166;SHT30;57541;47.408;18.822;2023-02-28T00:50:11;0.98;74.51
70166;SHT30;57541;47.408;18.822;2023-02-28T00:50:42;1.00;74.90
70166;SHT30;57541;47.408;18.822;2023-02-28T00:51:14;0.98;75.44
70166;SHT30;57541;47.408;18.822;2023-02-28T00:51:46;1.00;75.17
70166;SHT30;57541;47.408;18.822;2023-02-28T00:52:18;1.01;75.27
70166;SHT30;57541;47.408;18.822;2023-02-28T00:52:50;1.18;75.34
70166;SHT30;57541;47.408;18.822;2023-02-28T00:53:21;1.11;74.69
70166;SHT30;57541;47.408;18.822;2023-02-28T00:53:53;1.05;75.73
70166;SHT30;57541;47.408;18.822;2023-02-28T00:54:25;1.18;76.84
70166;SHT30;57541;47.408;18.822;2023-02-28T00:54:57;1.25;76.15
70166;SHT30;57541;47.408;18.822;2023-02-28T00:55:29;1.36;74.62
70166;SHT30;57541;47.408;18.822;2023-02-28T00:56:01;1.35;74.56
70166;SHT30;57541;47.408;18.822;2023-02-28T00:56:32;1.41;74.34
70166;SHT30;57541;47.408;18.822;2023-02-28T00:57:04;1.35;73.63
70166;SHT30;57541;47.408;18.822;2023-02-28T00:57:36;1.36;75.03
70166;SHT30;57541;47.408;18.822;2023-02-28T00:58:08;1.36;74.69
70166;SHT30;57541;47.408;18.822;2023-02-28T00:58:39;1.41;74.60
70166;SHT30;57541;47.408;18.822;2023-02-28T00:59:13;1.36;74.25
70166;SHT30;57541;47.408;18.822;2023-02-28T00:59:44;1.35;74.81
70166;SHT30;57541;47.408;18.822;2023-02-28T01:00:17;1.39;74.30
70166;SHT30;57541;47.408;18.822;2023-02-28T01:00:48;1.43;74.58
70166;SHT30;57541;47.408;18.822;2023-02-28T01:01:20;1.35;74.13
70166;SHT30;57541;47.408;18.822;2023-02-28T01:01:52;1.36;74.71
70166;SHT30;57541;47.408;18.822;2023-02-28T01:02:24;1.48;74.33
70166;SHT30;57541;47.408;18.822;2023-02-28T01:02:56;1.46;74.41
70166;SHT30;57541;47.408;18.822;2023-02-28T01:03:27;1.42;75.75
70166;SHT30;57541;47.408;18.822;2023-02-28T01:03:59;1.45;75.94
70166;SHT30;57541;47.408;18.822;2023-02-28T01:04:31;1.42;75.64
70166;SHT30;57541;47.408;18.822;2023-02-28T01:05:03;1.49;75.11
70166;SHT30;57541;47.408;18.822;2023-02-28T01:05:35;1.45;74.69
70166;SHT30;57541;47.408;18.822;2023-02-28T01:06:07;1.36;74.50
70166;SHT30;57541;47.408;18.822;2023-02-28T01:06:39;1.28;74.37
70166;SHT30;57541;47.408;18.822;2023-02-28T01:07:11;1.38;74.18
70166;SHT30;57541;47.408;18.822;2023-02-28T01:07:42;1.42;74.05
70166;SHT30;57541;47.408;18.822;2023-02-28T01:08:14;1.51;74.30
70166;SHT30;57541;47.408;18.822;2023-02-28T01:08:46;1.46;74.18
70166;SHT30;57541;47.408;18.822;2023-02-28T01:09:17;1.55;74.73
70166;SHT30;57541;47.408;18.822;2023-02-28T01:09:49;1.51;74.97
70166;SHT30;57541;47.408;18.822;2023-02-28T01:10:21;1.53;75.40
70166;SHT30;57541;47.408;18.822;2023-02-28T01:10:53;1.63;75.53
70166;SHT30;57541;47.408;18.822;2023-02-28T01:11:25;1.53;74.57
70166;SHT30;57541;47.408;18.822;2023-02-28T01:11:57;1.42;74.01
70166;SHT30;57541;47.408;18.822;2023-02-28T01:12:29;1.41;73.80
70166;SHT30;57541;47.408;18.822;2023-02-28T01:13:01;1.35;73.86
70166;SHT30;57541;47.408;18.822;2023-02-28T01:13:33;1.31;74.32
70166;SHT30;57541;47.408;18.822;2023-02-28T01:14:05;1.27;74.62
70166;SHT30;57541;47.408;18.822;2023-02-28T01:14:37;1.24;75.29
70166;SHT30;57541;47.408;18.822;2023-02-28T01:15:10;1.22;75.08
70166;SHT30;57541;47.408;18.822;2023-02-28T01:15:49;1.09;75.60
70166;SHT30;57541;47.408;18.822;2023-02-28T01:16:22;1.14;75.85
70166;SHT30;57541;47.408;18.822;2023-02-28T01:16:54;1.25;74.54
70166;SHT30;57541;47.408;18.822;2023-02-28T01:17:26;1.35;74.03
70166;SHT30;57541;47.408;18.822;2023-02-28T01:17:58;1.34;74.27
70166;SHT30;57541;47.408;18.822;2023-02-28T01:18:30;1.20;73.99
70166;SHT30;57541;47.408;18.822;2023-02-28T01:19:02;1.36;73.90
70166;SHT30;57541;47.408;18.822;2023-02-28T01:19:33;1.39;74.04
70166;SHT30;57541;47.408;18.822;2023-02-28T01:20:06;1.43;73.76
70166;SHT30;57541;47.408;18.822;2023-02-28T01:20:38;1.39;73.68
70166;SHT30;57541;47.408;18.822;2023-02-28T01:21:12;1.48;73.61
70166;SHT30;57541;47.408;18.822;2023-02-28T01:21:44;1.43;73.38
70166;SHT30;57541;47.408;18.822;2023-02-28T01:22:16;1.45;73.17
70166;SHT30;57541;47.408;18.822;2023-02-28T01:22:47;1.49;73.09
70166;SHT30;57541;47.408;18.822;2023-02-28T01:23:21;1.51;72.73
70166;SHT30;57541;47.408;18.822;2023-02-28T01:23:56;1.39;72.74
70166;SHT30;57541;47.408;18.822;2023-02-28T01:24:29;1.36;72.62
70166;SHT30;57541;47.408;18.822;2023-02-28T01:25:01;1.36;72.52
70166;SHT30;57541;47.408;18.822;2023-02-28T01:25:35;1.38;72.77
70166;SHT30;57541;47.408;18.822;2023-02-28T01:26:09;1.38;72.82
70166;SHT30;57541;47.408;18.822;2023-02-28T01:26:41;1.42;73.36
70166;SHT30;57541;47.408;18.822;2023-02-28T01:27:12;1.49;73.93
70166;SHT30;57541;47.408;18.822;2023-02-28T01:27:44;1.41;73.44
70166;SHT30;57541;47.408;18.822;2023-02-28T01:28:16;1.49;73.34
70166;SHT30;57541;47.408;18.822;2023-02-28T01:28:49;1.48;72.87
70166;SHT30;57541;47.408;18.822;2023-02-28T01:29:21;1.41;73.73
70166;SHT30;57541;47.408;18.822;2023-02-28T01:29:53;1.41;74.76
70166;SHT30;57541;47.408;18.822;2023-02-28T01:30:25;1.36;74.04
70166;SHT30;57541;47.408;18.822;2023-02-28T01:30:57;1.43;74.16
70166;SHT30;57541;47.408;18.822;2023-02-28T01:31:28;1.46;73.77
70166;SHT30;57541;47.408;18.822;2023-02-28T01:32:00;1.45;73.20
70166;SHT30;57541;47.408;18.822;2023-02-28T01:32:32;1.49;72.98
70166;SHT30;57541;47.408;18.822;2023-02-28T01:33:04;1.39;73.29
70166;SHT30;57541;47.408;18.822;2023-02-28T01:33:36;1.49;73.82
70166;SHT30;57541;47.408;18.822;2023-02-28T01:34:08;1.52;73.46
70166;SHT30;57541;47.408;18.822;2023-02-28T01:34:40;1.49;72.98
70166;SHT30;57541;47.408;18.822;2023-02-28T01:35:12;1.51;73.97
70166;SHT30;57541;47.408;18.822;2023-02-28T01:35:43;1.56;74.50
70166;SHT30;57541;47.408;18.822;2023-02-28T01:36:21;1.39;74.69
70166;SHT30;57541;47.408;18.822;2023-02-28T01:36:53;1.41;74.80
70166;SHT30;57541;47.408;18.822;2023-02-28T01:37:25;1.51;74.40
70166;SHT30;57541;47.408;18.822;2023-02-28T01:37:57;1.32;75.12
70166;SHT30;57541;47.408;18.822;2023-02-28T01:38:43;1.35;75.67
70166;SHT30;57541;47.408;18.822;2023-02-28T01:39:14;1.15;75.71
70166;SHT30;57541;47.408;18.822;2023-02-28T01:39:46;1.03;76.14
70166;SHT30;57541;47.408;18.822;2023-02-28T01:40:18;0.90;76.82
70166;SHT30;57541;47.408;18.822;2023-02-28T01:40:50;0.90;77.92
70166;SHT30;57541;47.408;18.822;2023-02-28T01:41:27;1.05;77.64
70166;SHT30;57541;47.408;18.822;2023-02-28T01:41:59;1.15;76.96
70166;SHT30;57541;47.408;18.822;2023-02-28T01:42:31;1.14;75.49
70166;SHT30;57541;47.408;18.822;2023-02-28T01:43:09;1.17;75.24
70166;SHT30;57541;47.408;18.822;2023-02-28T01:45:29;1.11;75.54
70166;SHT30;57541;47.408;18.822;2023-02-28T01:46:01;1.09;75.10
70166;SHT30;57541;47.408;18.822;2023-02-28T01:46:35;1.18;75.98
70166;SHT30;57541;47.408;18.822;2023-02-28T01:47:07;1.18;76.03
70166;SHT30;57541;47.408;18.822;2023-02-28T01:47:41;1.18;75.31
70166;SHT30;57541;47.408;18.822;2023-02-28T01:48:13;1.17;75.23
70166;SHT30;57541;47.408;18.822;2023-02-28T01:48:53;1.07;76.00
70166;SHT30;57541;47.408;18.822;2023-02-28T01:49:26;1.13;76.19
70166;SHT30;57541;47.408;18.822;2023-02-28T01:49:58;1.07;75.99
70166;SHT30;57541;47.408;18.822;2023-02-28T01:50:36;1.14;76.32
70166;SHT30;57541;47.408;18.822;2023-02-28T01:51:13;1.05;76.09
70166;SHT30;57541;47.408;18.822;2023-02-28T01:51:50;1.13;76.85
70166;SHT30;57541;47.408;18.822;2023-02-28T01:52:24;1.13;76.63
70166;SHT30;57541;47.408;18.822;2023-02-28T01:52:58;1.07;76.47
70166;SHT30;57541;47.408;18.822;2023-02-28T01:53:34;1.07;76.69
70166;SHT30;57541;47.408;18.822;2023-02-28T01:54:11;1.09;76.58
70166;SHT30;57541;47.408;18.822;2023-02-28T01:54:49;1.14;76.48
70166;SHT30;57541;47.408;18.822;2023-02-28T01:55:23;1.13;75.79
70166;SHT30;57541;47.408;18.822;2023-02-28T01:56:00;1.20;76.35
70166;SHT30;57541;47.408;18.822;2023-02-28T01:56:34;1.20;76.51
70166;SHT30;57541;47.408;18.822;2023-02-28T01:57:10;1.18;76.54
70166;SHT30;57541;47.408;18.822;2023-02-28T01:57:50;1.18;75.82
70166;SHT30;57541;47.408;18.822;2023-02-28T01:58:23;1.32;77.00
70166;SHT30;57541;47.408;18.822;2023-02-28T01:58:56;1.31;77.25
70166;SHT30;57541;47.408;18.822;2023-02-28T01:59:47;1.24;76.27
70166;SHT30;57541;47.408;18.822;2023-02-28T02:00:25;1.28;76.25
70166;SHT30;57541;47.408;18.822;2023-02-28T02:00:58;1.32;76.16
70166;SHT30;57541;47.408;18.822;2023-02-28T02:01:30;1.31;76.07
70166;SHT30;57541;47.408;18.822;2023-02-28T02:02:03;1.34;75.86
70166;SHT30;57541;47.408;18.822;2023-02-28T02:02:36;1.41;75.74
70166;SHT30;57541;47.408;18.822;2023-02-28T02:03:12;1.45;75.31
70166;SHT30;57541;47.408;18.822;2023-02-28T02:03:53;1.52;74.92
70166;SHT30;57541;47.408;18.822;2023-02-28T02:04:34;1.41;74.45
70166;SHT30;57541;47.408;18.822;2023-02-28T02:05:12;1.32;74.86
70166;SHT30;57541;47.408;18.822;2023-02-28T02:05:45;1.45;74.87
70166;SHT30;57541;47.408;18.822;2023-02-28T02:06:24;1.39;74.74
70166;SHT30;57541;47.408;18.822;2023-02-28T02:06:58;1.49;74.81
70166;SHT30;57541;47.408;18.822;2023-02-28T02:07:35;1.51;74.76
70166;SHT30;57541;47.408;18.822;2023-02-28T02:08:10;1.56;74.79
70166;SHT30;57541;47.408;18.822;2023-02-28T02:08:43;1.65;74.35
70166;SHT30;57541;47.408;18.822;2023-02-28T02:09:15;1.70;74.44
70166;SHT30;57541;47.408;18.822;2023-02-28T02:09:46;1.67;74.20
70166;SHT30;57541;47.408;18.822;2023-02-28T02:10:21;1.70;73.97
70166;SHT30;57541;47.408;18.822;2023-02-28T02:10:59;1.73;73.75
70166;SHT30;57541;47.408;18.822;2023-02-28T02:11:32;1.70;73.66
70166;SHT30;57541;47.408;18.822;2023-02-28T02:13:29;1.49;74.05
70166;SHT30;57541;47.408;18.822;2023-02-28T02:14:37;1.45;73.76
70166;SHT30;57541;47.408;18.822;2023-02-28T02:15:20;1.39;73.40
70166;SHT30;57541;47.408;18.822;2023-02-28T02:16:28;1.41;73.59
70166;SHT30;57541;47.408;18.822;2023-02-28T02:17:56;1.48;73.37
70166;SHT30;57541;47.408;18.822;2023-02-28T02:23:30;1.45;73.76
70166;SHT30;57541;47.408;18.822;2023-02-28T02:26:39;1.27;75.06
70166;SHT30;57541;47.408;18.822;2023-02-28T02:27:20;1.22;74.92
70166;SHT30;57541;47.408;18.822;2023-02-28T02:29:21;0.97;75.30
70166;SHT30;57541;47.408;18.822;2023-02-28T02:30:08;1.18;75.87
70166;SHT30;57541;47.408;18.822;2023-02-28T02:35:29;1.13;75.73
70166;SHT30;57541;47.408;18.822;2023-02-28T02:36:07;1.08;75.40
70166;SHT30;57541;47.408;18.822;2023-02-28T02:38:06;1.00;75.57
70166;SHT30;57541;47.408;18.822;2023-02-28T02:38:55;1.09;76.22
70166;SHT30;57541;47.408;18.822;2023-02-28T02:40:16;1.11;76.18
70166;SHT30;57541;47.408;18.822;2023-02-28T02:42:02;1.21;75.48
70166;SHT30;57541;47.408;18.822;2023-02-28T02:42:05;1.31;75.62
70166;SHT30;57541;47.408;18.822;2023-02-28T02:43:57;1.36;75.26
70166;SHT30;57541;47.408;18.822;2023-02-28T02:44:40;1.31;75.02
70166;SHT30;57541;47.408;18.822;2023-02-28T02:45:57;1.32;75.23
70166;SHT30;57541;47.408;18.822;2023-02-28T02:46:42;1.35;74.60
70166;SHT30;57541;47.408;18.822;2023-02-28T02:47:17;1.27;75.21
70166;SHT30;57541;47.408;18.822;2023-02-28T02:47:51;1.31;75.49
70166;SHT30;57541;47.408;18.822;2023-02-28T02:48:29;1.38;75.56
70166;SHT30;57541;47.408;18.822;2023-02-28T02:49:06;1.45;75.92
70166;SHT30;57541;47.408;18.822;2023-02-28T02:49:43;1.48;75.28
70166;SHT30;57541;47.408;18.822;2023-02-28T02:50:23;1.42;75.36
70166;SHT30;57541;47.408;18.822;2023-02-28T02:51:01;1.38;75.81
70166;SHT30;57541;47.408;18.822;2023-02-28T02:51:34;1.42;75.70
70166;SHT30;57541;47.408;18.822;2023-02-28T02:52:08;1.46;75.51
70166;SHT30;57541;47.408;18.822;2023-02-28T02:52:45;1.45;75.76
70166;SHT30;57541;47.408;18.822;2023-02-28T02:53:26;1.45;75.44
70166;SHT30;57541;47.408;18.822;2023-02-28T02:54:08;1.38;75.08
70166;SHT30;57541;47.408;18.822;2023-02-28T02:54:45;1.31;75.48
70166;SHT30;57541;47.408;18.822;2023-02-28T02:55:20;1.31;75.43
70166;SHT30;57541;47.408;18.822;2023-02-28T02:55:53;1.31;75.67
70166;SHT30;57541;47.408;18.822;2023-02-28T02:56:28;1.32;75.44
70166;SHT30;57541;47.408;18.822;2023-02-28T02:57:04;1.25;75.73
70166;SHT30;57541;47.408;18.822;2023-02-28T02:57:49;1.25;75.96
70166;SHT30;57541;47.408;18.822;2023-02-28T02:58:24;1.32;76.37
70166;SHT30;57541;47.408;18.822;2023-02-28T02:59:02;1.28;75.89
70166;SHT30;57541;47.408;18.822;2023-02-28T02:59:38;1.28;76.23
70166;SHT30;57541;47.408;18.822;2023-02-28T03:00:10;1.38;76.00
70166;SHT30;57541;47.408;18.822;2023-02-28T03:00:49;1.30;76.21
70166;SHT30;57541;47.408;18.822;2023-02-28T03:01:24;1.35;76.90
70166;SHT30;57541;47.408;18.822;2023-02-28T03:02:04;1.41;76.58
70166;SHT30;57541;47.408;18.822;2023-02-28T03:02:38;1.49;75.75
70166;SHT30;57541;47.408;18.822;2023-02-28T03:03:11;1.51;75.19
70166;SHT30;57541;47.408;18.822;2023-02-28T03:03:43;1.42;75.33
70166;SHT30;57541;47.408;18.822;2023-02-28T03:04:19;1.48;75.21
70166;SHT30;57541;47.408;18.822;2023-02-28T03:04:55;1.49;74.89
70166;SHT30;57541;47.408;18.822;2023-02-28T03:05:48;1.42;74.62
70166;SHT30;57541;47.408;18.822;2023-02-28T03:06:20;1.46;75.07
70166;SHT30;57541;47.408;18.822;2023-02-28T03:06:52;1.55;75.47
70166;SHT30;57541;47.408;18.822;2023-02-28T03:07:27;1.59;75.60
70166;SHT30;57541;47.408;18.822;2023-02-28T03:07:59;1.53;75.31
70166;SHT30;57541;47.408;18.822;2023-02-28T03:08:35;1.56;75.00
70166;SHT30;57541;47.408;18.822;2023-02-28T03:09:07;1.58;75.26
70166;SHT30;57541;47.408;18.822;2023-02-28T03:09:38;1.49;74.93
70166;SHT30;57541;47.408;18.822;2023-02-28T03:10:32;1.46;75.10
70166;SHT30;57541;47.408;18.822;2023-02-28T03:11:06;1.49;75.12
70166;SHT30;57541;47.408;18.822;2023-02-28T03:11:41;1.55;74.98
70166;SHT30;57541;47.408;18.822;2023-02-28T03:12:13;1.42;74.93
70166;SHT30;57541;47.408;18.822;2023-02-28T03:12:53;1.45;74.89
70166;SHT30;57541;47.408;18.822;2023-02-28T03:15:03;1.45;75.16
70166;SHT30;57541;47.408;18.822;2023-02-28T03:17:13;1.66;74.63
70166;SHT30;57541;47.408;18.822;2023-02-28T03:18:06;1.67;74.45
70166;SHT30;57541;47.408;18.822;2023-02-28T03:20:04;1.69;74.80
70166;SHT30;57541;47.408;18.822;2023-02-28T03:20:47;1.69;75.37
70166;SHT30;57541;47.408;18.822;2023-02-28T03:21:42;1.67;75.58
70166;SHT30;57541;47.408;18.822;2023-02-28T03:23:27;1.63;75.96
70166;SHT30;57541;47.408;18.822;2023-02-28T03:24:05;1.65;76.02
70166;SHT30;57541;47.408;18.822;2023-02-28T03:26:21;1.60;76.22
70166;SHT30;57541;47.408;18.822;2023-02-28T03:27:09;1.59;76.17
70166;SHT30;57541;47.408;18.822;2023-02-28T03:28:00;1.58;76.57
70166;SHT30;57541;47.408;18.822;2023-02-28T03:28:51;1.52;76.62
70166;SHT30;57541;47.408;18.822;2023-02-28T03:29:30;1.42;76.39
70166;SHT30;57541;47.408;18.822;2023-02-28T03:30:57;1.49;76.06
70166;SHT30;57541;47.408;18.822;2023-02-28T03:31:36;1.35;75.87
70166;SHT30;57541;47.408;18.822;2023-02-28T03:32:28;1.31;76.06
70166;SHT30;57541;47.408;18.822;2023-02-28T03:33:08;1.35;76.23
70166;SHT30;57541;47.408;18.822;2023-02-28T03:33:53;1.34;76.31
70166;SHT30;57541;47.408;18.822;2023-02-28T03:34:32;1.36;76.45
70166;SHT30;57541;47.408;18.822;2023-02-28T03:35:26;1.39;77.21
70166;SHT30;57541;47.408;18.822;2023-02-28T03:36:42;1.28;76.32
70166;SHT30;57541;47.408;18.822;2023-02-28T03:37:20;1.22;76.62
70166;SHT30;57541;47.408;18.822;2023-02-28T03:37:59;1.30;76.54
70166;SHT30;57541;47.408;18.822;2023-02-28T03:39:08;1.24;76.35
70166;SHT30;57541;47.408;18.822;2023-02-28T03:39:43;1.20;76.58
70166;SHT30;57541;47.408;18.822;2023-02-28T03:40:22;1.17;76.80
70166;SHT30;57541;47.408;18.822;2023-02-28T03:41:04;1.28;77.21
70166;SHT30;57541;47.408;18.822;2023-02-28T03:42:20;1.34;76.59
70166;SHT30;57541;47.408;18.822;2023-02-28T03:42:57;1.30;76.95
70166;SHT30;57541;47.408;18.822;2023-02-28T03:43:35;1.46;76.41
70166;SHT30;57541;47.408;18.822;2023-02-28T03:44:15;1.36;76.43
70166;SHT30;57541;47.408;18.822;2023-02-28T03:45:55;1.25;76.98
70166;SHT30;57541;47.408;18.822;2023-02-28T03:46:31;1.32;77.22
70166;SHT30;57541;47.408;18.822;2023-02-28T03:47:16;1.27;77.11
70166;SHT30;57541;47.408;18.822;2023-02-28T03:48:17;1.24;77.15
70166;SHT30;57541;47.408;18.822;2023-02-28T03:49:01;1.25;77.11
70166;SHT30;57541;47.408;18.822;2023-02-28T03:49:38;1.32;76.74
70166;SHT30;57541;47.408;18.822;2023-02-28T03:50:20;1.32;76.98
70166;SHT30;57541;47.408;18.822;2023-02-28T03:50:58;1.34;76.86
70166;SHT30;57541;47.408;18.822;2023-02-28T03:51:31;1.34;76.90
70166;SHT30;57541;47.408;18.822;2023-02-28T03:52:06;1.43;76.74
70166;SHT30;57541;47.408;18.822;2023-02-28T03:52:42;1.42;76.53
70166;SHT30;57541;47.408;18.822;2023-02-28T03:53:25;1.43;76.47
70166;SHT30;57541;47.408;18.822;2023-02-28T03:54:05;1.41;76.43
70166;SHT30;57541;47.408;18.822;2023-02-28T03:54:48;1.25;76.93
70166;SHT30;57541;47.408;18.822;2023-02-28T03:55:21;1.31;77.04
70166;SHT30;57541;47.408;18.822;2023-02-28T03:56:01;1.24;76.99
70166;SHT30;57541;47.408;18.822;2023-02-28T03:56:38;1.32;76.92
70166;SHT30;57541;47.408;18.822;2023-02-28T03:58:21;1.39;77.16
70166;SHT30;57541;47.408;18.822;2023-02-28T03:59:39;1.32;77.35
70166;SHT30;57541;47.408;18.822;2023-02-28T04:00:32;1.20;78.14
70166;SHT30;57541;47.408;18.822;2023-02-28T04:01:09;1.31;77.91
70166;SHT30;57541;47.408;18.822;2023-02-28T04:01:44;1.35;77.68
70166;SHT30;57541;47.408;18.822;2023-02-28T04:02:16;1.36;77.81
70166;SHT30;57541;47.408;18.822;2023-02-28T04:02:48;1.36;77.92
70166;SHT30;57541;47.408;18.822;2023-02-28T04:03:24;1.34;77.85
70166;SHT30;57541;47.408;18.822;2023-02-28T04:03:55;1.24;77.72
70166;SHT30;57541;47.408;18.822;2023-02-28T04:04:28;1.27;78.06
70166;SHT30;57541;47.408;18.822;2023-02-28T04:05:00;1.22;78.10
70166;SHT30;57541;47.408;18.822;2023-02-28T04:05:32;1.20;78.39
70166;SHT30;57541;47.408;18.822;2023-02-28T04:06:06;1.18;79.26
70166;SHT30;57541;47.408;18.822;2023-02-28T04:06:39;1.20;78.52
70166;SHT30;57541;47.408;18.822;2023-02-28T04:07:11;1.15;78.20
70166;SHT30;57541;47.408;18.822;2023-02-28T04:07:43;1.28;78.33
70166;SHT30;57541;47.408;18.822;2023-02-28T04:08:14;1.25;78.37
70166;SHT30;57541;47.408;18.822;2023-02-28T04:08:46;1.21;78.44
70166;SHT30;57541;47.408;18.822;2023-02-28T04:09:18;1.22;79.42
70166;SHT30;57541;47.408;18.822;2023-02-28T04:09:51;1.00;80.36
70166;SHT30;57541;47.408;18.822;2023-02-28T04:10:23;1.05;81.19
70166;SHT30;57541;47.408;18.822;2023-02-28T04:11:03;1.13;80.44
70166;SHT30;57541;47.408;18.822;2023-02-28T04:11:39;1.14;79.16
70166;SHT30;57541;47.408;18.822;2023-02-28T04:12:11;1.24;78.25
70166;SHT30;57541;47.408;18.822;2023-02-28T04:12:43;1.28;77.98
70166;SHT30;57541;47.408;18.822;2023-02-28T04:13:15;1.30;77.82
70166;SHT30;57541;47.408;18.822;2023-02-28T04:13:46;1.24;77.39
70166;SHT30;57541;47.408;18.822;2023-02-28T04:14:18;1.28;77.41
70166;SHT30;57541;47.408;18.822;2023-02-28T04:14:50;1.36;77.59
70166;SHT30;57541;47.408;18.822;2023-02-28T04:15:22;1.24;78.16